METAR Data
IDs: Format: Raw Decoded Include TAF

Data at: 2020 UTC 13 Aug 2020

MRPV 132000Z 10012KT 9999 FEW035 SCT120 BKN200 23/17 A2994 NOSIG

MROC 132000Z 12011KT CAVOK 25/17 A2998 NOSIG

No METAR found for